createdAt,value
2023-01-20T00:01:47.949Z,3.39
2023-01-20T00:04:18.947Z,3.41
2023-01-20T00:06:46.673Z,3.37
2023-01-20T00:09:16.044Z,3.36
2023-01-20T00:11:44.663Z,3.39
2023-01-20T00:14:13.885Z,3.36
2023-01-20T00:16:41.648Z,3.28
2023-01-20T00:19:09.389Z,3.24
2023-01-20T00:21:37.131Z,3.21
2023-01-20T00:24:05.269Z,3.26
2023-01-20T00:26:33.017Z,3.30
2023-01-20T00:29:00.721Z,3.31
2023-01-20T00:31:31.207Z,3.35
2023-01-20T00:34:01.124Z,3.34
2023-01-20T00:36:31.163Z,3.31
2023-01-20T00:38:58.973Z,3.33
2023-01-20T00:41:26.694Z,3.37
2023-01-20T00:43:54.461Z,3.39
2023-01-20T00:46:22.985Z,3.41
2023-01-20T00:48:52.204Z,3.40
2023-01-20T00:51:19.968Z,3.46
2023-01-20T00:53:47.740Z,3.44
2023-01-20T00:56:15.446Z,3.47
2023-01-20T00:58:44.065Z,3.48
2023-01-20T01:01:12.364Z,3.45
2023-01-20T01:03:40.161Z,3.41
2023-01-20T01:06:12.272Z,3.45
2023-01-20T01:08:40.031Z,3.47
2023-01-20T01:11:08.089Z,3.52
2023-01-20T01:13:37.247Z,3.53
2023-01-20T01:16:05.652Z,3.54
2023-01-20T01:18:33.362Z,3.51
2023-01-20T01:21:01.322Z,3.48
2023-01-20T01:23:30.427Z,3.48
2023-01-20T01:25:58.548Z,3.48
2023-01-20T01:28:26.247Z,3.46
2023-01-20T01:30:53.936Z,3.45
2023-01-20T01:33:21.671Z,3.45
2023-01-20T01:35:56.251Z,3.44
2023-01-20T01:38:24.269Z,3.46
2023-01-20T01:40:54.823Z,3.42
2023-01-20T01:43:25.423Z,3.40
2023-01-20T01:45:53.260Z,3.39
2023-01-20T01:48:22.477Z,3.40
2023-01-20T01:50:53.966Z,3.34
2023-01-20T01:53:22.329Z,3.30
2023-01-20T01:55:54.695Z,3.34
2023-01-20T01:58:26.774Z,3.35
2023-01-20T02:00:54.540Z,3.38
2023-01-20T02:03:22.433Z,3.40
2023-01-20T02:05:50.746Z,3.39
2023-01-20T02:08:18.486Z,3.37
2023-01-20T02:10:46.160Z,3.37
2023-01-20T02:13:15.341Z,3.39
2023-01-20T02:15:49.021Z,3.38
2023-01-20T02:18:35.539Z,3.35
2023-01-20T02:21:49.015Z,3.35
2023-01-20T02:25:01.821Z,3.33
2023-01-20T02:27:44.256Z,3.37
2023-01-20T02:30:40.243Z,3.35
2023-01-20T02:33:11.481Z,3.30
2023-01-20T02:35:43.898Z,3.33
2023-01-20T02:38:15.462Z,3.34
2023-01-20T02:40:51.026Z,3.33
2023-01-20T02:43:21.694Z,3.30
2023-01-20T02:45:51.156Z,3.28
2023-01-20T02:48:25.979Z,3.26
2023-01-20T02:50:59.877Z,3.27
2023-01-20T02:53:31.869Z,3.22
2023-01-20T02:55:59.649Z,3.21
2023-01-20T02:58:31.174Z,3.26
2023-01-20T03:01:02.178Z,3.31
2023-01-20T03:03:35.095Z,3.30
2023-01-20T03:06:05.339Z,3.26
2023-01-20T03:08:33.649Z,3.30
2023-01-20T03:11:05.083Z,3.30
2023-01-20T03:13:35.473Z,3.30
2023-01-20T03:16:06.411Z,3.30
2023-01-20T03:18:36.235Z,3.33
2023-01-20T03:21:05.445Z,3.27
2023-01-20T03:23:35.021Z,3.27
2023-01-20T03:26:04.662Z,3.27
2023-01-20T03:28:32.348Z,3.28
2023-01-20T03:31:00.603Z,3.30
2023-01-20T03:33:28.543Z,3.30
2023-01-20T03:35:57.730Z,3.26
2023-01-20T03:38:25.469Z,3.25
2023-01-20T03:41:00.195Z,3.24
2023-01-20T03:43:30.926Z,3.22
2023-01-20T03:46:03.963Z,3.26
2023-01-20T03:48:38.658Z,3.29
2023-01-20T03:51:11.947Z,3.28
2023-01-20T03:53:45.495Z,3.25
2023-01-20T03:56:17.119Z,3.30
2023-01-20T03:58:47.265Z,3.31
2023-01-20T04:01:18.510Z,3.28
2023-01-20T04:03:48.038Z,3.37
2023-01-20T04:06:19.593Z,3.35
2023-01-20T04:08:49.921Z,3.34
2023-01-20T04:11:17.843Z,3.33
2023-01-20T04:13:45.564Z,3.34
2023-01-20T04:16:17.202Z,3.31
2023-01-20T04:18:47.321Z,3.33
2023-01-20T04:21:20.345Z,3.29
2023-01-20T04:23:52.885Z,3.32
2023-01-20T04:26:20.657Z,3.34
2023-01-20T04:28:48.368Z,3.39
2023-01-20T04:31:29.561Z,3.38
2023-01-20T04:33:58.543Z,3.31
2023-01-20T04:36:27.791Z,3.30
2023-01-20T04:38:55.456Z,3.28
2023-01-20T04:41:23.378Z,3.23
2023-01-20T04:43:51.173Z,3.17
2023-01-20T04:46:18.962Z,3.16
2023-01-20T04:48:47.079Z,3.16
2023-01-20T04:51:15.157Z,3.15
2023-01-20T04:53:44.250Z,3.10
2023-01-20T04:56:12.992Z,3.08
2023-01-20T04:58:40.834Z,3.06
2023-01-20T05:01:08.868Z,3.02
2023-01-20T05:03:36.743Z,2.99
2023-01-20T05:06:06.225Z,2.99
2023-01-20T05:08:34.106Z,2.99
2023-01-20T05:11:03.250Z,2.97
2023-01-20T05:13:31.156Z,3.01
2023-01-20T05:16:01.897Z,2.99
2023-01-20T05:18:30.560Z,3.04
2023-01-20T05:20:58.244Z,3.04
2023-01-20T05:23:25.918Z,3.05
2023-01-20T05:25:54.337Z,3.02
2023-01-20T05:28:23.596Z,3.00
2023-01-20T05:30:51.763Z,2.97
2023-01-20T05:33:19.888Z,2.94
2023-01-20T05:35:47.555Z,2.94
2023-01-20T05:38:15.325Z,2.97
2023-01-20T05:40:43.019Z,2.92
2023-01-20T05:43:12.872Z,2.95
2023-01-20T05:45:43.112Z,2.97
2023-01-20T05:48:10.827Z,2.99
2023-01-20T05:50:38.572Z,2.94
2023-01-20T05:53:06.336Z,2.94
2023-01-20T05:55:34.054Z,2.97
2023-01-20T05:58:02.501Z,3.02
2023-01-20T06:00:30.548Z,3.00
2023-01-20T06:02:59.690Z,3.06
2023-01-20T06:05:27.569Z,3.03
2023-01-20T06:07:56.088Z,2.98
2023-01-20T06:10:25.269Z,2.98
2023-01-20T06:12:53.826Z,2.96
2023-01-20T06:15:21.658Z,2.93
2023-01-20T06:17:49.355Z,2.92
2023-01-20T06:20:18.826Z,2.83
2023-01-20T06:22:46.609Z,2.87
2023-01-20T06:25:14.780Z,2.89
2023-01-20T06:27:42.553Z,2.86
2023-01-20T06:30:12.159Z,2.87
2023-01-20T06:32:39.854Z,2.85
2023-01-20T06:35:09.928Z,2.74
2023-01-20T06:37:40.390Z,2.72
2023-01-20T06:40:09.234Z,2.67
2023-01-20T06:42:36.906Z,2.66
2023-01-20T06:45:05.097Z,2.71
2023-01-20T06:47:32.717Z,2.77
2023-01-20T06:50:00.457Z,2.80
2023-01-20T06:52:28.281Z,2.82
2023-01-20T06:54:57.358Z,2.85
2023-01-20T06:57:25.052Z,2.88
2023-01-20T06:59:52.673Z,2.91
2023-01-20T07:02:20.423Z,2.93
2023-01-20T07:04:48.170Z,2.92
2023-01-20T07:07:15.905Z,2.88
2023-01-20T07:09:43.550Z,2.83
2023-01-20T07:12:12.674Z,2.79
2023-01-20T07:14:40.469Z,2.84
2023-01-20T07:17:13.504Z,2.86
2023-01-20T07:19:41.275Z,2.91
2023-01-20T07:22:08.956Z,2.92
2023-01-20T07:24:36.793Z,2.92
2023-01-20T07:27:04.595Z,2.95
2023-01-20T07:29:33.753Z,2.96
2023-01-20T07:32:01.553Z,2.97
2023-01-20T07:34:29.329Z,2.95
2023-01-20T07:36:57.039Z,2.84
2023-01-20T07:39:24.827Z,2.86
2023-01-20T07:41:52.590Z,2.85
2023-01-20T07:44:20.293Z,2.85
2023-01-20T07:46:51.617Z,2.86
2023-01-20T07:49:19.398Z,2.86
2023-01-20T07:51:47.096Z,2.87
2023-01-20T07:54:14.798Z,2.86
2023-01-20T07:56:42.509Z,2.78
2023-01-20T07:59:11.508Z,2.79
2023-01-20T08:01:39.253Z,2.78
2023-01-20T08:04:08.392Z,2.78
2023-01-20T08:06:36.084Z,2.77
2023-01-20T08:09:04.004Z,2.77
2023-01-20T08:13:38.063Z,2.75
2023-01-20T08:16:08.346Z,2.76
2023-01-20T08:18:36.769Z,2.77
2023-01-20T08:21:06.592Z,2.84
2023-01-20T08:23:34.458Z,2.86
2023-01-20T08:26:03.529Z,2.83
2023-01-20T08:28:31.509Z,2.81
2023-01-20T08:31:07.884Z,2.86
2023-01-20T08:33:36.107Z,2.86
2023-01-20T08:36:08.773Z,2.85
2023-01-20T08:38:36.838Z,2.88
2023-01-20T08:41:08.229Z,2.84
2023-01-20T08:43:35.977Z,2.85
2023-01-20T08:46:07.704Z,2.85
2023-01-20T08:48:35.660Z,2.92
2023-01-20T08:51:05.041Z,2.93
2023-01-20T08:53:32.893Z,2.98
2023-01-20T08:56:01.822Z,2.97
2023-01-20T08:58:30.252Z,2.97
2023-01-20T09:00:58.091Z,3.00
2023-01-20T09:03:27.225Z,2.98
2023-01-20T09:05:54.884Z,2.97
2023-01-20T09:08:23.384Z,2.95
2023-01-20T09:10:51.384Z,2.93
2023-01-20T09:13:19.084Z,2.99
2023-01-20T09:15:52.567Z,2.99
2023-01-20T09:18:20.328Z,2.99
2023-01-20T09:20:49.347Z,3.02
2023-01-20T09:23:17.023Z,3.01
2023-01-20T09:25:44.710Z,2.97
2023-01-20T09:28:14.206Z,2.95
2023-01-20T09:30:43.956Z,2.96
2023-01-20T09:33:12.120Z,2.94
2023-01-20T09:35:40.632Z,2.95
2023-01-20T09:38:28.340Z,2.99
2023-01-20T09:41:21.431Z,2.98
2023-01-20T09:43:55.424Z,2.99
2023-01-20T09:46:31.550Z,2.92
2023-01-20T09:49:23.427Z,2.91
2023-01-20T09:52:13.231Z,2.95
2023-01-20T09:54:46.102Z,2.96
2023-01-20T09:57:15.036Z,2.97
2023-01-20T09:59:47.188Z,3.00
2023-01-20T10:02:19.705Z,2.99
2023-01-20T10:04:49.403Z,3.02
2023-01-20T10:07:24.104Z,3.02
2023-01-20T10:09:56.476Z,3.12
2023-01-20T10:12:28.849Z,3.08
2023-01-20T10:15:01.290Z,3.20
2023-01-20T10:17:31.960Z,3.19
2023-01-20T10:20:04.009Z,3.21
2023-01-20T10:22:35.511Z,3.20
2023-01-20T10:25:08.274Z,3.19
2023-01-20T10:27:38.097Z,3.21
2023-01-20T10:30:09.121Z,3.23
2023-01-20T10:32:39.067Z,3.25
2023-01-20T10:35:15.570Z,3.28
2023-01-20T10:37:43.876Z,3.28
2023-01-20T10:40:20.997Z,3.26
2023-01-20T10:42:49.880Z,3.30
2023-01-20T10:45:22.730Z,3.33
2023-01-20T10:47:58.241Z,3.35
2023-01-20T10:50:52.281Z,3.38
2023-01-20T10:53:41.742Z,3.38
2023-01-20T10:56:36.153Z,3.44
2023-01-20T10:59:09.481Z,3.44
2023-01-20T11:01:37.744Z,3.44
2023-01-20T11:04:05.482Z,3.41
2023-01-20T11:06:33.858Z,3.44
2023-01-20T11:09:30.595Z,3.46
2023-01-20T11:12:00.927Z,3.48
2023-01-20T11:14:28.630Z,3.52
2023-01-20T11:17:01.156Z,3.57
2023-01-20T11:19:28.870Z,3.61
2023-01-20T11:21:56.593Z,3.59
2023-01-20T11:24:36.527Z,3.61
2023-01-20T11:27:07.045Z,3.61
2023-01-20T11:29:40.747Z,3.58
2023-01-20T11:32:25.431Z,3.58
2023-01-20T11:34:53.391Z,3.60
2023-01-20T11:37:22.563Z,3.54
2023-01-20T11:40:02.156Z,3.58
2023-01-20T11:42:32.277Z,3.57
2023-01-20T11:45:19.815Z,3.56
2023-01-20T11:48:01.446Z,3.59
2023-01-20T11:50:32.999Z,3.65
2023-01-20T11:53:19.364Z,3.70
2023-01-20T11:55:51.008Z,3.67
2023-01-20T11:58:21.778Z,3.67
2023-01-20T12:00:51.368Z,3.63
2023-01-20T12:03:46.835Z,3.66
2023-01-20T12:06:19.368Z,3.73
2023-01-20T12:08:50.701Z,3.75
2023-01-20T12:11:23.513Z,3.77
2023-01-20T12:14:23.634Z,3.82
2023-01-20T12:16:59.038Z,3.82
2023-01-20T12:19:31.982Z,3.83
2023-01-20T12:22:04.545Z,3.81
2023-01-20T12:24:54.797Z,3.81
2023-01-20T12:27:26.591Z,3.83
2023-01-20T12:29:57.355Z,3.85
2023-01-20T12:32:25.068Z,3.87
2023-01-20T12:34:52.822Z,3.93
2023-01-20T12:37:24.818Z,3.98
2023-01-20T12:40:07.359Z,3.98
2023-01-20T12:43:11.815Z,3.99
2023-01-20T12:45:51.132Z,4.00
2023-01-20T12:48:28.454Z,4.01
2023-01-20T12:51:10.635Z,4.00
2023-01-20T12:53:56.100Z,4.02
2023-01-20T12:56:31.403Z,4.07
2023-01-20T12:59:04.308Z,4.04
2023-01-20T13:01:47.215Z,4.04
2023-01-20T13:04:57.727Z,4.03
2023-01-20T13:07:49.547Z,4.02
2023-01-20T13:10:30.517Z,4.07
2023-01-20T13:13:03.229Z,4.03
2023-01-20T13:15:36.414Z,4.09
2023-01-20T13:18:19.064Z,4.09
2023-01-20T13:20:47.415Z,4.08
2023-01-20T13:23:17.163Z,4.10
2023-01-20T13:25:46.374Z,4.12
2023-01-20T13:28:17.567Z,4.12
2023-01-20T13:30:48.233Z,4.15
2023-01-20T13:33:32.719Z,4.14
2023-01-20T13:36:01.107Z,4.16
2023-01-20T13:38:31.032Z,4.19
2023-01-20T13:41:03.185Z,4.23
2023-01-20T13:43:48.212Z,4.23
2023-01-20T13:46:38.358Z,4.24
2023-01-20T13:49:15.745Z,4.21
2023-01-20T13:51:45.933Z,4.22
2023-01-20T13:54:47.250Z,4.19
2023-01-20T13:57:34.710Z,4.16
2023-01-20T14:00:02.505Z,4.16
2023-01-20T14:02:37.465Z,4.15
2023-01-20T14:05:20.775Z,4.13
2023-01-20T14:07:48.519Z,4.13
2023-01-20T14:10:16.351Z,4.12
2023-01-20T14:12:44.248Z,4.13
2023-01-20T14:15:34.200Z,4.12
2023-01-20T14:18:02.190Z,4.15
2023-01-20T14:20:31.509Z,4.18
2023-01-20T14:23:18.347Z,4.17
2023-01-20T14:25:57.945Z,4.15
2023-01-20T14:28:25.673Z,4.18
2023-01-20T14:31:21.301Z,4.19
2023-01-20T14:34:00.519Z,4.20
2023-01-20T14:36:31.836Z,4.21
2023-01-20T14:39:03.874Z,4.22
2023-01-20T14:41:34.630Z,4.18
2023-01-20T14:44:03.208Z,4.18
2023-01-20T14:46:40.693Z,4.18
2023-01-20T14:49:08.514Z,4.18
2023-01-20T14:51:37.663Z,4.20
2023-01-20T14:54:30.992Z,4.19
2023-01-20T14:56:59.940Z,4.13
2023-01-20T14:59:27.870Z,4.15
2023-01-20T15:02:06.804Z,4.16
2023-01-20T15:04:37.994Z,4.16
2023-01-20T15:07:07.511Z,4.15
2023-01-20T15:09:36.272Z,4.16
2023-01-20T15:12:42.580Z,4.19
2023-01-20T15:15:28.201Z,4.20
2023-01-20T15:18:18.911Z,4.24
2023-01-20T15:20:48.886Z,4.19
2023-01-20T15:23:35.505Z,4.20
2023-01-20T15:26:09.664Z,4.19
2023-01-20T15:28:42.311Z,4.21
2023-01-20T15:31:13.725Z,4.24
2023-01-20T15:33:41.839Z,4.24
2023-01-20T15:36:21.598Z,4.24
2023-01-20T15:38:51.369Z,4.23
2023-01-20T15:41:19.725Z,4.23
2023-01-20T15:43:49.151Z,4.24
2023-01-20T15:46:18.070Z,4.26
2023-01-20T15:48:46.702Z,4.25
2023-01-20T15:51:15.709Z,4.26
2023-01-20T15:53:43.497Z,4.26
2023-01-20T15:56:15.772Z,4.27
2023-01-20T15:58:43.507Z,4.27
2023-01-20T16:01:12.693Z,4.27
2023-01-20T16:03:40.444Z,4.29
2023-01-20T16:06:12.202Z,4.29
2023-01-20T16:08:40.164Z,4.28
2023-01-20T16:11:09.006Z,4.27
2023-01-20T16:13:38.153Z,4.27
2023-01-20T16:16:07.364Z,4.27
2023-01-20T16:18:35.078Z,4.27
2023-01-20T16:21:02.763Z,4.28
2023-01-20T16:23:30.594Z,4.26
2023-01-20T16:25:58.349Z,4.28
2023-01-20T16:28:26.039Z,4.23
2023-01-20T16:30:57.663Z,4.24
2023-01-20T16:33:26.660Z,4.25
2023-01-20T16:35:56.522Z,4.23
2023-01-20T16:38:26.873Z,4.23
2023-01-20T16:40:59.086Z,4.22
2023-01-20T16:43:26.832Z,4.17
2023-01-20T16:45:56.158Z,4.14
2023-01-20T16:48:25.586Z,4.12
2023-01-20T16:51:34.896Z,4.11
2023-01-20T16:54:02.602Z,4.12
2023-01-20T16:56:31.240Z,4.14
2023-01-20T16:59:00.626Z,4.13
2023-01-20T17:01:29.187Z,4.12
2023-01-20T17:03:58.582Z,4.13
2023-01-20T17:06:27.984Z,4.12
2023-01-20T17:08:58.585Z,4.12
2023-01-20T17:11:28.287Z,4.11
2023-01-20T17:13:56.634Z,4.09
2023-01-20T17:18:51.250Z,4.05
2023-01-20T17:21:20.674Z,4.03
2023-01-20T17:23:51.029Z,4.02
2023-01-20T17:26:19.044Z,4.05
2023-01-20T17:28:47.082Z,4.08
2023-01-20T17:31:14.970Z,4.08
2023-01-20T17:33:46.647Z,4.07
2023-01-20T17:36:16.670Z,4.05
2023-01-20T17:38:44.828Z,4.04
2023-01-20T17:41:16.021Z,4.01
2023-01-20T17:43:46.102Z,4.01
2023-01-20T17:46:16.057Z,4.02
2023-01-20T17:48:43.940Z,4.03
2023-01-20T17:51:12.577Z,4.04
2023-01-20T17:53:42.100Z,4.05
2023-01-20T17:56:12.695Z,4.00
2023-01-20T17:58:42.090Z,4.06
2023-01-20T18:01:11.552Z,4.06
2023-01-20T18:03:41.885Z,4.05
2023-01-20T18:06:19.029Z,4.02
2023-01-20T18:08:52.038Z,4.04
2023-01-20T18:11:21.713Z,4.04
2023-01-20T18:13:50.231Z,4.01
2023-01-20T18:16:20.291Z,4.03
2023-01-20T18:18:49.473Z,4.03
2023-01-20T18:21:19.175Z,3.97
2023-01-20T18:23:49.424Z,3.92
2023-01-20T18:26:18.828Z,3.97
2023-01-20T18:28:47.895Z,3.95
2023-01-20T18:31:17.589Z,3.97
2023-01-20T18:33:47.634Z,3.98
2023-01-20T18:36:17.785Z,3.98
2023-01-20T18:38:52.000Z,3.96
2023-01-20T18:41:20.006Z,3.96
2023-01-20T18:43:48.257Z,3.96
2023-01-20T18:46:16.198Z,3.96
2023-01-20T18:48:45.865Z,3.94
2023-01-20T18:51:15.756Z,3.94
2023-01-20T18:53:44.309Z,3.90
2023-01-20T18:56:15.303Z,3.93
2023-01-20T18:58:47.042Z,3.91
2023-01-20T19:01:18.236Z,3.86
2023-01-20T19:03:46.808Z,3.92
2023-01-20T19:06:16.627Z,3.88
2023-01-20T19:08:45.532Z,3.89
2023-01-20T19:11:15.917Z,3.86
2023-01-20T19:13:43.711Z,3.86
2023-01-20T19:16:13.315Z,3.85
2023-01-20T19:18:41.666Z,3.80
2023-01-20T19:21:11.453Z,3.77
2023-01-20T19:23:39.710Z,3.79
2023-01-20T19:26:09.089Z,3.86
2023-01-20T19:28:38.542Z,3.86
2023-01-20T19:31:07.606Z,3.81
2023-01-20T19:33:35.721Z,3.80
2023-01-20T19:36:04.883Z,3.79
2023-01-20T19:38:32.675Z,3.78
2023-01-20T19:41:05.589Z,3.79
2023-01-20T19:43:33.379Z,3.80
2023-01-20T19:46:03.774Z,3.76
2023-01-20T19:48:32.033Z,3.75
2023-01-20T19:51:03.718Z,3.73
2023-01-20T19:53:31.538Z,3.71
2023-01-20T19:56:02.835Z,3.68
2023-01-20T19:58:30.580Z,3.67
2023-01-20T20:01:07.885Z,3.65
2023-01-20T20:03:35.791Z,3.60
2023-01-20T20:06:05.019Z,3.57
2023-01-20T20:08:32.949Z,3.50
2023-01-20T20:11:00.651Z,3.54
2023-01-20T20:13:28.353Z,3.51
2023-01-20T20:16:01.827Z,3.52
2023-01-20T20:18:31.074Z,3.47
2023-01-20T20:20:59.017Z,3.43
2023-01-20T20:23:27.020Z,3.42
2023-01-20T20:25:56.573Z,3.38
2023-01-20T20:28:24.756Z,3.39
2023-01-20T20:30:55.389Z,3.38
2023-01-20T20:33:23.228Z,3.35
2023-01-20T20:35:52.601Z,3.34
2023-01-20T20:38:20.367Z,3.30
2023-01-20T20:40:48.113Z,3.25
2023-01-20T20:43:15.883Z,3.28
2023-01-20T20:45:43.684Z,3.27
2023-01-20T20:48:11.379Z,3.26
2023-01-20T20:50:39.102Z,3.24
2023-01-20T20:53:08.211Z,3.23
2023-01-20T20:55:40.243Z,3.22
2023-01-20T20:58:09.275Z,3.17
2023-01-20T21:00:37.006Z,3.17
2023-01-20T21:03:06.876Z,3.14
2023-01-20T21:05:34.847Z,3.17
2023-01-20T21:08:04.699Z,3.14
2023-01-20T21:10:34.036Z,3.15
2023-01-20T21:13:01.809Z,3.11
2023-01-20T21:15:30.461Z,3.06
2023-01-20T21:17:58.414Z,3.05
2023-01-20T21:20:26.229Z,3.02
2023-01-20T21:22:54.006Z,3.01
2023-01-20T21:25:24.041Z,3.01
2023-01-20T21:27:53.277Z,3.02
2023-01-20T21:30:23.196Z,3.02
2023-01-20T21:32:51.176Z,2.97
2023-01-20T21:35:18.933Z,2.93
2023-01-20T21:37:46.700Z,2.91
2023-01-20T21:40:14.907Z,2.91
2023-01-20T21:42:44.047Z,2.90
2023-01-20T21:45:12.530Z,2.90
2023-01-20T21:47:40.297Z,2.86
2023-01-20T21:50:26.884Z,2.83
2023-01-20T21:52:54.617Z,2.83
2023-01-20T21:55:24.163Z,2.84
2023-01-20T21:57:51.916Z,2.81
2023-01-20T22:00:22.097Z,2.77
2023-01-20T22:02:49.828Z,2.76
2023-01-20T22:05:18.278Z,2.74
2023-01-20T22:07:47.917Z,2.73
2023-01-20T22:10:16.141Z,2.71
2023-01-20T22:12:44.016Z,2.70
2023-01-20T22:15:12.624Z,2.71
2023-01-20T22:17:41.870Z,2.65
2023-01-20T22:20:11.228Z,2.64
2023-01-20T22:22:38.927Z,2.63
2023-01-20T22:25:07.534Z,2.61
2023-01-20T22:27:35.363Z,2.59
2023-01-20T22:30:03.070Z,2.59
2023-01-20T22:32:30.792Z,2.59
2023-01-20T22:35:00.024Z,2.58
2023-01-20T22:37:27.867Z,2.57
2023-01-20T22:39:55.723Z,2.56
2023-01-20T22:42:23.497Z,2.57
2023-01-20T22:44:51.291Z,2.56
2023-01-20T22:47:19.035Z,2.53
2023-01-20T22:49:46.795Z,2.50
2023-01-20T22:52:15.869Z,2.43
2023-01-20T22:54:43.556Z,2.47
2023-01-20T22:57:11.791Z,2.46
2023-01-20T22:59:39.508Z,2.46
2023-01-20T23:02:07.398Z,2.44
2023-01-20T23:04:35.201Z,2.45
2023-01-20T23:07:02.907Z,2.40
2023-01-20T23:09:32.082Z,2.38
2023-01-20T23:11:59.807Z,2.36
2023-01-20T23:14:58.521Z,2.33
2023-01-20T23:17:26.267Z,2.33
2023-01-20T23:19:54.297Z,2.33
2023-01-20T23:22:22.293Z,2.32
2023-01-20T23:24:51.693Z,2.35
2023-01-20T23:27:19.432Z,2.35
2023-01-20T23:29:49.105Z,2.35
2023-01-20T23:32:16.852Z,2.33
2023-01-20T23:34:44.578Z,2.27
2023-01-20T23:37:12.314Z,2.27
2023-01-20T23:39:40.085Z,2.28
2023-01-20T23:42:09.150Z,2.26
2023-01-20T23:44:36.805Z,2.28
2023-01-20T23:47:07.520Z,2.26
2023-01-20T23:49:35.175Z,2.21
2023-01-20T23:52:02.860Z,2.22
2023-01-20T23:54:30.619Z,2.22
2023-01-20T23:56:58.399Z,2.19
2023-01-20T23:59:27.559Z,2.18
